sensor_id;sensor_type;location;lat;lon;timestamp;P1;durP1;ratioP1;P2;durP2;ratioP2
35959;SDS011;22043;50.970;7.192;2024-03-07T00:00:11;28.20;;;13.10;;
35959;SDS011;22043;50.970;7.192;2024-03-07T00:02:44;27.88;;;12.85;;
35959;SDS011;22043;50.970;7.192;2024-03-07T00:05:11;29.08;;;13.10;;
35959;SDS011;22043;50.970;7.192;2024-03-07T00:07:38;29.60;;;13.18;;
35959;SDS011;22043;50.970;7.192;2024-03-07T00:10:03;30.48;;;13.90;;
35959;SDS011;22043;50.970;7.192;2024-03-07T00:12:30;29.73;;;13.15;;
35959;SDS011;22043;50.970;7.192;2024-03-07T00:14:55;24.23;;;12.70;;
35959;SDS011;22043;50.970;7.192;2024-03-07T00:17:21;33.17;;;13.73;;
35959;SDS011;22043;50.970;7.192;2024-03-07T00:19:48;29.55;;;13.75;;
35959;SDS011;22043;50.970;7.192;2024-03-07T00:22:13;25.05;;;12.00;;
35959;SDS011;22043;50.970;7.192;2024-03-07T00:24:39;24.30;;;12.27;;
35959;SDS011;22043;50.970;7.192;2024-03-07T00:27:05;26.08;;;12.00;;
35959;SDS011;22043;50.970;7.192;2024-03-07T00:29:30;28.73;;;12.15;;
35959;SDS011;22043;50.970;7.192;2024-03-07T00:31:56;29.48;;;12.95;;
35959;SDS011;22043;50.970;7.192;2024-03-07T00:34:22;24.10;;;12.38;;
35959;SDS011;22043;50.970;7.192;2024-03-07T00:36:48;24.75;;;11.13;;
35959;SDS011;22043;50.970;7.192;2024-03-07T00:39:13;28.05;;;12.52;;
35959;SDS011;22043;50.970;7.192;2024-03-07T00:41:39;30.80;;;12.70;;
35959;SDS011;22043;50.970;7.192;2024-03-07T00:44:05;25.88;;;12.25;;
35959;SDS011;22043;50.970;7.192;2024-03-07T00:46:37;25.88;;;11.50;;
35959;SDS011;22043;50.970;7.192;2024-03-07T00:49:03;25.90;;;12.68;;
35959;SDS011;22043;50.970;7.192;2024-03-07T00:51:30;30.42;;;13.88;;
35959;SDS011;22043;50.970;7.192;2024-03-07T00:53:55;27.00;;;12.55;;
35959;SDS011;22043;50.970;7.192;2024-03-07T00:56:21;24.90;;;11.50;;
35959;SDS011;22043;50.970;7.192;2024-03-07T00:58:47;30.35;;;13.57;;
35959;SDS011;22043;50.970;7.192;2024-03-07T01:01:13;30.40;;;12.55;;
35959;SDS011;22043;50.970;7.192;2024-03-07T01:03:40;30.15;;;11.43;;
35959;SDS011;22043;50.970;7.192;2024-03-07T01:06:06;26.85;;;12.30;;
35959;SDS011;22043;50.970;7.192;2024-03-07T01:08:32;28.30;;;12.73;;
35959;SDS011;22043;50.970;7.192;2024-03-07T01:10:58;26.67;;;13.40;;
35959;SDS011;22043;50.970;7.192;2024-03-07T01:13:23;26.70;;;11.98;;
35959;SDS011;22043;50.970;7.192;2024-03-07T01:15:49;26.45;;;12.50;;
35959;SDS011;22043;50.970;7.192;2024-03-07T01:18:15;28.83;;;13.18;;
35959;SDS011;22043;50.970;7.192;2024-03-07T01:20:42;24.10;;;12.63;;
35959;SDS011;22043;50.970;7.192;2024-03-07T01:23:07;28.02;;;12.90;;
35959;SDS011;22043;50.970;7.192;2024-03-07T01:25:33;34.40;;;13.80;;
35959;SDS011;22043;50.970;7.192;2024-03-07T01:28:02;27.63;;;11.80;;
35959;SDS011;22043;50.970;7.192;2024-03-07T01:30:29;27.80;;;11.32;;
35959;SDS011;22043;50.970;7.192;2024-03-07T01:32:54;28.83;;;12.57;;
35959;SDS011;22043;50.970;7.192;2024-03-07T01:35:20;28.83;;;13.63;;
35959;SDS011;22043;50.970;7.192;2024-03-07T01:37:45;26.20;;;11.73;;
35959;SDS011;22043;50.970;7.192;2024-03-07T01:40:11;27.25;;;13.25;;
35959;SDS011;22043;50.970;7.192;2024-03-07T01:42:37;28.38;;;12.68;;
35959;SDS011;22043;50.970;7.192;2024-03-07T01:45:02;26.95;;;12.30;;
35959;SDS011;22043;50.970;7.192;2024-03-07T01:47:28;29.92;;;12.52;;
35959;SDS011;22043;50.970;7.192;2024-03-07T01:49:53;29.02;;;11.98;;
35959;SDS011;22043;50.970;7.192;2024-03-07T01:52:19;25.65;;;11.52;;
35959;SDS011;22043;50.970;7.192;2024-03-07T01:54:46;28.73;;;12.30;;
35959;SDS011;22043;50.970;7.192;2024-03-07T01:57:12;24.95;;;10.52;;
35959;SDS011;22043;50.970;7.192;2024-03-07T01:59:38;28.05;;;11.60;;
35959;SDS011;22043;50.970;7.192;2024-03-07T02:02:04;27.05;;;11.93;;
35959;SDS011;22043;50.970;7.192;2024-03-07T02:04:30;25.90;;;11.57;;
35959;SDS011;22043;50.970;7.192;2024-03-07T02:06:56;25.05;;;11.93;;
35959;SDS011;22043;50.970;7.192;2024-03-07T02:09:21;28.52;;;12.25;;
35959;SDS011;22043;50.970;7.192;2024-03-07T02:11:47;26.65;;;12.13;;
35959;SDS011;22043;50.970;7.192;2024-03-07T02:14:14;28.23;;;13.23;;
35959;SDS011;22043;50.970;7.192;2024-03-07T02:16:39;26.80;;;12.40;;
35959;SDS011;22043;50.970;7.192;2024-03-07T02:19:05;26.38;;;12.20;;
35959;SDS011;22043;50.970;7.192;2024-03-07T02:21:31;24.48;;;12.77;;
35959;SDS011;22043;50.970;7.192;2024-03-07T02:23:57;24.23;;;11.88;;
35959;SDS011;22043;50.970;7.192;2024-03-07T02:26:23;28.58;;;12.75;;
35959;SDS011;22043;50.970;7.192;2024-03-07T02:28:48;26.98;;;12.35;;
35959;SDS011;22043;50.970;7.192;2024-03-07T02:31:20;30.70;;;14.23;;
35959;SDS011;22043;50.970;7.192;2024-03-07T02:33:53;26.65;;;12.98;;
35959;SDS011;22043;50.970;7.192;2024-03-07T02:36:18;29.90;;;13.07;;
35959;SDS011;22043;50.970;7.192;2024-03-07T02:38:44;25.23;;;11.77;;
35959;SDS011;22043;50.970;7.192;2024-03-07T02:41:09;29.40;;;12.60;;
35959;SDS011;22043;50.970;7.192;2024-03-07T02:43:34;25.17;;;11.43;;
35959;SDS011;22043;50.970;7.192;2024-03-07T02:48:28;24.77;;;11.15;;
35959;SDS011;22043;50.970;7.192;2024-03-07T02:50:55;31.65;;;13.25;;
35959;SDS011;22043;50.970;7.192;2024-03-07T02:53:21;26.00;;;12.23;;
35959;SDS011;22043;50.970;7.192;2024-03-07T02:55:46;28.60;;;11.85;;
35959;SDS011;22043;50.970;7.192;2024-03-07T02:58:12;25.48;;;11.13;;
35959;SDS011;22043;50.970;7.192;2024-03-07T03:00:37;25.27;;;11.77;;
35959;SDS011;22043;50.970;7.192;2024-03-07T03:03:02;28.48;;;12.35;;
35959;SDS011;22043;50.970;7.192;2024-03-07T03:05:28;27.58;;;11.95;;
35959;SDS011;22043;50.970;7.192;2024-03-07T03:07:55;26.27;;;12.27;;
35959;SDS011;22043;50.970;7.192;2024-03-07T03:10:21;29.75;;;12.43;;
35959;SDS011;22043;50.970;7.192;2024-03-07T03:12:54;27.67;;;12.70;;
35959;SDS011;22043;50.970;7.192;2024-03-07T03:15:22;24.73;;;12.57;;
35959;SDS011;22043;50.970;7.192;2024-03-07T03:17:48;27.30;;;12.18;;
35959;SDS011;22043;50.970;7.192;2024-03-07T03:20:14;26.85;;;11.90;;
35959;SDS011;22043;50.970;7.192;2024-03-07T03:23:12;23.48;;;11.80;;
35959;SDS011;22043;50.970;7.192;2024-03-07T03:25:38;26.52;;;13.15;;
35959;SDS011;22043;50.970;7.192;2024-03-07T03:28:05;27.73;;;12.50;;
35959;SDS011;22043;50.970;7.192;2024-03-07T03:30:31;25.67;;;12.60;;
35959;SDS011;22043;50.970;7.192;2024-03-07T03:32:58;26.77;;;12.27;;
35959;SDS011;22043;50.970;7.192;2024-03-07T03:35:23;23.13;;;11.80;;
35959;SDS011;22043;50.970;7.192;2024-03-07T03:37:49;29.48;;;12.65;;
35959;SDS011;22043;50.970;7.192;2024-03-07T03:40:15;25.75;;;11.73;;
35959;SDS011;22043;50.970;7.192;2024-03-07T03:42:41;28.10;;;13.32;;
35959;SDS011;22043;50.970;7.192;2024-03-07T03:45:07;33.08;;;12.82;;
35959;SDS011;22043;50.970;7.192;2024-03-07T03:47:34;27.40;;;13.32;;
35959;SDS011;22043;50.970;7.192;2024-03-07T03:50:06;25.35;;;11.05;;
35959;SDS011;22043;50.970;7.192;2024-03-07T03:52:33;24.90;;;11.82;;
35959;SDS011;22043;50.970;7.192;2024-03-07T03:55:00;25.52;;;11.13;;
35959;SDS011;22043;50.970;7.192;2024-03-07T03:57:26;29.23;;;12.25;;
35959;SDS011;22043;50.970;7.192;2024-03-07T03:59:52;24.27;;;11.32;;
35959;SDS011;22043;50.970;7.192;2024-03-07T04:02:18;26.35;;;11.60;;
35959;SDS011;22043;50.970;7.192;2024-03-07T04:04:44;28.98;;;12.02;;
35959;SDS011;22043;50.970;7.192;2024-03-07T04:07:11;26.75;;;12.27;;
35959;SDS011;22043;50.970;7.192;2024-03-07T04:09:37;27.63;;;12.50;;
35959;SDS011;22043;50.970;7.192;2024-03-07T04:12:03;25.73;;;12.98;;
35959;SDS011;22043;50.970;7.192;2024-03-07T04:14:30;29.40;;;13.52;;
35959;SDS011;22043;50.970;7.192;2024-03-07T04:16:58;28.23;;;12.68;;
35959;SDS011;22043;50.970;7.192;2024-03-07T04:19:24;28.13;;;13.30;;
35959;SDS011;22043;50.970;7.192;2024-03-07T04:21:50;28.33;;;12.90;;
35959;SDS011;22043;50.970;7.192;2024-03-07T04:24:16;28.73;;;13.75;;
35959;SDS011;22043;50.970;7.192;2024-03-07T04:26:42;29.67;;;13.18;;
35959;SDS011;22043;50.970;7.192;2024-03-07T04:29:07;30.08;;;13.45;;
35959;SDS011;22043;50.970;7.192;2024-03-07T04:31:36;26.98;;;12.68;;
35959;SDS011;22043;50.970;7.192;2024-03-07T04:34:02;29.58;;;12.73;;
35959;SDS011;22043;50.970;7.192;2024-03-07T04:36:27;26.55;;;13.40;;
35959;SDS011;22043;50.970;7.192;2024-03-07T04:38:54;26.02;;;12.55;;
35959;SDS011;22043;50.970;7.192;2024-03-07T04:41:20;25.95;;;12.98;;
35959;SDS011;22043;50.970;7.192;2024-03-07T04:43:45;35.17;;;13.73;;
35959;SDS011;22043;50.970;7.192;2024-03-07T04:46:11;28.67;;;11.73;;
35959;SDS011;22043;50.970;7.192;2024-03-07T04:48:36;26.60;;;12.70;;
35959;SDS011;22043;50.970;7.192;2024-03-07T04:51:02;23.20;;;11.43;;
35959;SDS011;22043;50.970;7.192;2024-03-07T04:53:28;24.90;;;13.13;;
35959;SDS011;22043;50.970;7.192;2024-03-07T04:55:54;25.40;;;11.63;;
35959;SDS011;22043;50.970;7.192;2024-03-07T04:58:19;27.85;;;12.88;;
35959;SDS011;22043;50.970;7.192;2024-03-07T05:00:45;25.38;;;11.65;;
35959;SDS011;22043;50.970;7.192;2024-03-07T05:03:10;26.38;;;12.48;;
35959;SDS011;22043;50.970;7.192;2024-03-07T05:05:36;26.75;;;12.05;;
35959;SDS011;22043;50.970;7.192;2024-03-07T05:08:01;24.83;;;12.27;;
35959;SDS011;22043;50.970;7.192;2024-03-07T05:10:29;25.90;;;13.48;;
35959;SDS011;22043;50.970;7.192;2024-03-07T05:12:55;26.48;;;12.18;;
35959;SDS011;22043;50.970;7.192;2024-03-07T05:15:24;24.98;;;11.90;;
35959;SDS011;22043;50.970;7.192;2024-03-07T05:17:51;26.90;;;11.90;;
35959;SDS011;22043;50.970;7.192;2024-03-07T05:20:17;25.17;;;12.38;;
35959;SDS011;22043;50.970;7.192;2024-03-07T05:22:43;30.30;;;13.13;;
35959;SDS011;22043;50.970;7.192;2024-03-07T05:25:17;29.17;;;12.50;;
35959;SDS011;22043;50.970;7.192;2024-03-07T05:27:44;29.23;;;12.85;;
35959;SDS011;22043;50.970;7.192;2024-03-07T05:30:10;29.75;;;11.98;;
35959;SDS011;22043;50.970;7.192;2024-03-07T05:32:36;25.63;;;12.25;;
35959;SDS011;22043;50.970;7.192;2024-03-07T05:35:02;25.05;;;11.90;;
35959;SDS011;22043;50.970;7.192;2024-03-07T05:37:28;23.63;;;12.30;;
35959;SDS011;22043;50.970;7.192;2024-03-07T05:39:53;25.40;;;11.50;;
35959;SDS011;22043;50.970;7.192;2024-03-07T05:42:19;30.15;;;12.55;;
35959;SDS011;22043;50.970;7.192;2024-03-07T05:44:45;25.35;;;13.32;;
35959;SDS011;22043;50.970;7.192;2024-03-07T05:47:10;28.10;;;13.55;;
35959;SDS011;22043;50.970;7.192;2024-03-07T05:49:38;26.67;;;11.65;;
35959;SDS011;22043;50.970;7.192;2024-03-07T05:52:04;29.40;;;13.80;;
35959;SDS011;22043;50.970;7.192;2024-03-07T05:54:31;27.50;;;12.77;;
35959;SDS011;22043;50.970;7.192;2024-03-07T05:56:57;27.73;;;13.00;;
35959;SDS011;22043;50.970;7.192;2024-03-07T05:59:22;23.92;;;11.40;;
35959;SDS011;22043;50.970;7.192;2024-03-07T06:01:48;29.67;;;12.95;;
35959;SDS011;22043;50.970;7.192;2024-03-07T06:04:13;23.95;;;11.95;;
35959;SDS011;22043;50.970;7.192;2024-03-07T06:06:40;28.00;;;12.23;;
35959;SDS011;22043;50.970;7.192;2024-03-07T06:09:09;21.38;;;11.45;;
35959;SDS011;22043;50.970;7.192;2024-03-07T06:11:35;24.67;;;11.90;;
35959;SDS011;22043;50.970;7.192;2024-03-07T06:14:04;28.08;;;12.43;;
35959;SDS011;22043;50.970;7.192;2024-03-07T06:16:40;25.13;;;12.80;;
35959;SDS011;22043;50.970;7.192;2024-03-07T06:19:06;25.08;;;11.95;;
35959;SDS011;22043;50.970;7.192;2024-03-07T06:21:33;25.30;;;11.65;;
35959;SDS011;22043;50.970;7.192;2024-03-07T06:23:59;26.85;;;13.02;;
35959;SDS011;22043;50.970;7.192;2024-03-07T06:26:28;24.73;;;12.55;;
35959;SDS011;22043;50.970;7.192;2024-03-07T06:29:06;25.83;;;12.27;;
35959;SDS011;22043;50.970;7.192;2024-03-07T06:31:32;28.60;;;12.50;;
35959;SDS011;22043;50.970;7.192;2024-03-07T06:33:58;26.27;;;12.63;;
35959;SDS011;22043;50.970;7.192;2024-03-07T06:36:24;25.10;;;11.20;;
35959;SDS011;22043;50.970;7.192;2024-03-07T06:38:50;21.02;;;10.85;;
35959;SDS011;22043;50.970;7.192;2024-03-07T06:41:16;24.00;;;12.02;;
35959;SDS011;22043;50.970;7.192;2024-03-07T06:43:43;23.80;;;11.48;;
35959;SDS011;22043;50.970;7.192;2024-03-07T06:46:09;27.80;;;12.18;;
35959;SDS011;22043;50.970;7.192;2024-03-07T06:48:35;26.63;;;12.50;;
35959;SDS011;22043;50.970;7.192;2024-03-07T06:51:00;26.73;;;10.80;;
35959;SDS011;22043;50.970;7.192;2024-03-07T06:53:26;25.92;;;12.30;;
35959;SDS011;22043;50.970;7.192;2024-03-07T06:55:53;24.37;;;11.87;;
35959;SDS011;22043;50.970;7.192;2024-03-07T06:58:19;22.83;;;10.63;;
35959;SDS011;22043;50.970;7.192;2024-03-07T07:00:45;25.63;;;11.93;;
35959;SDS011;22043;50.970;7.192;2024-03-07T07:03:11;26.95;;;11.93;;
35959;SDS011;22043;50.970;7.192;2024-03-07T07:05:38;22.02;;;11.55;;
35959;SDS011;22043;50.970;7.192;2024-03-07T07:08:06;23.38;;;11.85;;
35959;SDS011;22043;50.970;7.192;2024-03-07T07:10:31;21.08;;;11.10;;
35959;SDS011;22043;50.970;7.192;2024-03-07T07:12:57;29.27;;;12.23;;
35959;SDS011;22043;50.970;7.192;2024-03-07T07:15:23;23.83;;;11.57;;
35959;SDS011;22043;50.970;7.192;2024-03-07T07:17:50;25.27;;;11.30;;
35959;SDS011;22043;50.970;7.192;2024-03-07T07:20:16;22.63;;;11.45;;
35959;SDS011;22043;50.970;7.192;2024-03-07T07:22:42;23.45;;;11.30;;
35959;SDS011;22043;50.970;7.192;2024-03-07T07:25:09;24.67;;;10.90;;
35959;SDS011;22043;50.970;7.192;2024-03-07T07:30:08;22.88;;;9.98;;
35959;SDS011;22043;50.970;7.192;2024-03-07T07:32:35;24.50;;;11.33;;
35959;SDS011;22043;50.970;7.192;2024-03-07T07:35:01;20.63;;;10.65;;
35959;SDS011;22043;50.970;7.192;2024-03-07T07:37:27;25.92;;;11.68;;
35959;SDS011;22043;50.970;7.192;2024-03-07T07:39:52;22.38;;;10.65;;
35959;SDS011;22043;50.970;7.192;2024-03-07T07:42:18;26.38;;;10.32;;
35959;SDS011;22043;50.970;7.192;2024-03-07T07:44:43;29.50;;;10.90;;
35959;SDS011;22043;50.970;7.192;2024-03-07T07:47:09;23.50;;;11.15;;
35959;SDS011;22043;50.970;7.192;2024-03-07T07:49:36;22.83;;;10.80;;
35959;SDS011;22043;50.970;7.192;2024-03-07T07:52:05;21.40;;;9.98;;
35959;SDS011;22043;50.970;7.192;2024-03-07T07:54:31;22.42;;;9.95;;
35959;SDS011;22043;50.970;7.192;2024-03-07T07:56:57;20.75;;;10.27;;
35959;SDS011;22043;50.970;7.192;2024-03-07T07:59:24;21.40;;;10.23;;
35959;SDS011;22043;50.970;7.192;2024-03-07T08:01:49;21.13;;;10.07;;
35959;SDS011;22043;50.970;7.192;2024-03-07T08:04:15;24.55;;;11.30;;
35959;SDS011;22043;50.970;7.192;2024-03-07T08:06:40;20.95;;;10.30;;
35959;SDS011;22043;50.970;7.192;2024-03-07T08:09:06;20.92;;;10.15;;
35959;SDS011;22043;50.970;7.192;2024-03-07T08:11:35;20.05;;;10.32;;
35959;SDS011;22043;50.970;7.192;2024-03-07T08:14:02;22.55;;;11.45;;
35959;SDS011;22043;50.970;7.192;2024-03-07T08:16:28;23.65;;;11.18;;
35959;SDS011;22043;50.970;7.192;2024-03-07T08:18:53;17.35;;;9.18;;
35959;SDS011;22043;50.970;7.192;2024-03-07T08:21:19;24.40;;;10.82;;
35959;SDS011;22043;50.970;7.192;2024-03-07T08:23:44;27.42;;;10.48;;
35959;SDS011;22043;50.970;7.192;2024-03-07T08:26:11;19.80;;;10.27;;
35959;SDS011;22043;50.970;7.192;2024-03-07T08:28:37;20.48;;;10.43;;
35959;SDS011;22043;50.970;7.192;2024-03-07T08:31:02;20.25;;;9.68;;
35959;SDS011;22043;50.970;7.192;2024-03-07T08:33:29;20.38;;;9.75;;
35959;SDS011;22043;50.970;7.192;2024-03-07T08:35:58;20.83;;;9.65;;
35959;SDS011;22043;50.970;7.192;2024-03-07T08:38:24;18.63;;;9.57;;
35959;SDS011;22043;50.970;7.192;2024-03-07T08:40:49;23.90;;;10.68;;
35959;SDS011;22043;50.970;7.192;2024-03-07T08:43:15;23.95;;;10.38;;
35959;SDS011;22043;50.970;7.192;2024-03-07T08:45:41;22.05;;;10.00;;
35959;SDS011;22043;50.970;7.192;2024-03-07T08:48:06;23.27;;;10.88;;
35959;SDS011;22043;50.970;7.192;2024-03-07T08:50:34;20.87;;;9.50;;
35959;SDS011;22043;50.970;7.192;2024-03-07T08:53:00;21.65;;;9.77;;
35959;SDS011;22043;50.970;7.192;2024-03-07T08:55:26;20.73;;;9.02;;
35959;SDS011;22043;50.970;7.192;2024-03-07T08:57:51;21.35;;;10.07;;
35959;SDS011;22043;50.970;7.192;2024-03-07T09:00:17;18.60;;;9.80;;
35959;SDS011;22043;50.970;7.192;2024-03-07T09:02:53;20.17;;;9.07;;
35959;SDS011;22043;50.970;7.192;2024-03-07T09:05:20;20.67;;;9.80;;
35959;SDS011;22043;50.970;7.192;2024-03-07T09:07:47;20.00;;;9.77;;
35959;SDS011;22043;50.970;7.192;2024-03-07T09:10:16;17.52;;;8.82;;
35959;SDS011;22043;50.970;7.192;2024-03-07T09:12:45;23.98;;;10.20;;
35959;SDS011;22043;50.970;7.192;2024-03-07T09:15:13;20.25;;;10.20;;
35959;SDS011;22043;50.970;7.192;2024-03-07T09:17:41;23.13;;;9.85;;
35959;SDS011;22043;50.970;7.192;2024-03-07T09:20:07;21.00;;;10.85;;
35959;SDS011;22043;50.970;7.192;2024-03-07T09:22:39;23.17;;;10.48;;
35959;SDS011;22043;50.970;7.192;2024-03-07T09:25:06;23.48;;;10.57;;
35959;SDS011;22043;50.970;7.192;2024-03-07T09:27:32;25.45;;;10.63;;
35959;SDS011;22043;50.970;7.192;2024-03-07T09:29:57;22.15;;;9.80;;
35959;SDS011;22043;50.970;7.192;2024-03-07T09:32:23;20.45;;;9.57;;
35959;SDS011;22043;50.970;7.192;2024-03-07T09:34:49;18.83;;;8.75;;
35959;SDS011;22043;50.970;7.192;2024-03-07T09:37:15;21.33;;;10.15;;
35959;SDS011;22043;50.970;7.192;2024-03-07T09:39:40;25.40;;;10.05;;
35959;SDS011;22043;50.970;7.192;2024-03-07T09:42:07;23.60;;;9.45;;
35959;SDS011;22043;50.970;7.192;2024-03-07T09:44:36;29.85;;;10.07;;
35959;SDS011;22043;50.970;7.192;2024-03-07T09:47:04;21.60;;;10.23;;
35959;SDS011;22043;50.970;7.192;2024-03-07T09:49:30;23.65;;;10.60;;
35959;SDS011;22043;50.970;7.192;2024-03-07T09:51:56;20.08;;;9.52;;
35959;SDS011;22043;50.970;7.192;2024-03-07T09:54:22;21.95;;;10.38;;
35959;SDS011;22043;50.970;7.192;2024-03-07T09:56:54;20.58;;;9.90;;
35959;SDS011;22043;50.970;7.192;2024-03-07T09:59:24;20.17;;;9.63;;
35959;SDS011;22043;50.970;7.192;2024-03-07T10:01:56;20.67;;;9.55;;
35959;SDS011;22043;50.970;7.192;2024-03-07T10:04:29;20.55;;;9.65;;
35959;SDS011;22043;50.970;7.192;2024-03-07T10:06:58;21.00;;;9.73;;
35959;SDS011;22043;50.970;7.192;2024-03-07T10:09:23;20.73;;;10.05;;
35959;SDS011;22043;50.970;7.192;2024-03-07T10:11:58;20.75;;;9.73;;
35959;SDS011;22043;50.970;7.192;2024-03-07T10:14:24;22.48;;;9.80;;
35959;SDS011;22043;50.970;7.192;2024-03-07T10:16:50;21.77;;;10.07;;
35959;SDS011;22043;50.970;7.192;2024-03-07T10:19:15;19.80;;;9.00;;
35959;SDS011;22043;50.970;7.192;2024-03-07T10:21:41;25.23;;;10.20;;
35959;SDS011;22043;50.970;7.192;2024-03-07T10:24:09;22.85;;;9.70;;
35959;SDS011;22043;50.970;7.192;2024-03-07T10:26:39;22.50;;;9.90;;
35959;SDS011;22043;50.970;7.192;2024-03-07T10:29:05;18.05;;;9.57;;
35959;SDS011;22043;50.970;7.192;2024-03-07T10:31:33;24.48;;;10.98;;
35959;SDS011;22043;50.970;7.192;2024-03-07T10:33:59;19.67;;;10.20;;
35959;SDS011;22043;50.970;7.192;2024-03-07T10:36:29;22.13;;;10.23;;
35959;SDS011;22043;50.970;7.192;2024-03-07T10:38:59;21.63;;;9.40;;
35959;SDS011;22043;50.970;7.192;2024-03-07T10:41:29;22.85;;;9.95;;
35959;SDS011;22043;50.970;7.192;2024-03-07T10:44:01;20.70;;;9.23;;
35959;SDS011;22043;50.970;7.192;2024-03-07T10:46:29;23.88;;;10.45;;
35959;SDS011;22043;50.970;7.192;2024-03-07T10:48:55;20.95;;;9.35;;
35959;SDS011;22043;50.970;7.192;2024-03-07T10:51:29;24.77;;;10.43;;
35959;SDS011;22043;50.970;7.192;2024-03-07T10:54:20;20.40;;;9.60;;
35959;SDS011;22043;50.970;7.192;2024-03-07T10:57:12;21.42;;;10.90;;
35959;SDS011;22043;50.970;7.192;2024-03-07T10:59:45;16.23;;;8.35;;
35959;SDS011;22043;50.970;7.192;2024-03-07T11:04:49;18.42;;;8.93;;
35959;SDS011;22043;50.970;7.192;2024-03-07T11:07:17;16.15;;;8.73;;
35959;SDS011;22043;50.970;7.192;2024-03-07T11:09:45;19.30;;;8.93;;
35959;SDS011;22043;50.970;7.192;2024-03-07T11:12:12;18.38;;;8.45;;
35959;SDS011;22043;50.970;7.192;2024-03-07T11:14:38;19.55;;;8.13;;
35959;SDS011;22043;50.970;7.192;2024-03-07T11:17:04;18.42;;;7.53;;
35959;SDS011;22043;50.970;7.192;2024-03-07T11:19:33;19.45;;;7.55;;
35959;SDS011;22043;50.970;7.192;2024-03-07T11:22:01;16.83;;;7.30;;
35959;SDS011;22043;50.970;7.192;2024-03-07T11:24:35;16.77;;;7.80;;
35959;SDS011;22043;50.970;7.192;2024-03-07T11:27:02;18.83;;;7.45;;
35959;SDS011;22043;50.970;7.192;2024-03-07T11:32:22;14.93;;;6.75;;
35959;SDS011;22043;50.970;7.192;2024-03-07T11:34:48;14.15;;;6.57;;
35959;SDS011;22043;50.970;7.192;2024-03-07T11:37:58;16.40;;;7.35;;
35959;SDS011;22043;50.970;7.192;2024-03-07T11:40:13;16.52;;;7.15;;
35959;SDS011;22043;50.970;7.192;2024-03-07T11:42:49;16.27;;;6.50;;
35959;SDS011;22043;50.970;7.192;2024-03-07T11:45:16;13.85;;;7.68;;
35959;SDS011;22043;50.970;7.192;2024-03-07T11:47:55;17.75;;;6.90;;
35959;SDS011;22043;50.970;7.192;2024-03-07T11:50:34;13.43;;;6.88;;
35959;SDS011;22043;50.970;7.192;2024-03-07T11:53:03;17.85;;;7.50;;
35959;SDS011;22043;50.970;7.192;2024-03-07T11:55:33;14.57;;;6.47;;
35959;SDS011;22043;50.970;7.192;2024-03-07T11:58:13;12.20;;;6.13;;
35959;SDS011;22043;50.970;7.192;2024-03-07T12:00:49;13.20;;;6.05;;
35959;SDS011;22043;50.970;7.192;2024-03-07T12:05:44;15.20;;;6.30;;
35959;SDS011;22043;50.970;7.192;2024-03-07T12:08:10;11.52;;;5.93;;
35959;SDS011;22043;50.970;7.192;2024-03-07T12:10:40;10.32;;;5.63;;
35959;SDS011;22043;50.970;7.192;2024-03-07T12:13:13;15.77;;;5.97;;
35959;SDS011;22043;50.970;7.192;2024-03-07T12:15:42;12.60;;;5.80;;
35959;SDS011;22043;50.970;7.192;2024-03-07T12:18:08;15.07;;;6.10;;
35959;SDS011;22043;50.970;7.192;2024-03-07T12:20:42;15.52;;;6.55;;
35959;SDS011;22043;50.970;7.192;2024-03-07T12:23:12;14.15;;;6.85;;
35959;SDS011;22043;50.970;7.192;2024-03-07T12:25:37;14.10;;;6.43;;
35959;SDS011;22043;50.970;7.192;2024-03-07T12:30:57;13.40;;;6.07;;
35959;SDS011;22043;50.970;7.192;2024-03-07T12:33:22;12.10;;;6.38;;
35959;SDS011;22043;50.970;7.192;2024-03-07T12:35:51;11.45;;;5.38;;
35959;SDS011;22043;50.970;7.192;2024-03-07T12:40:44;11.18;;;5.78;;
35959;SDS011;22043;50.970;7.192;2024-03-07T12:43:20;10.93;;;5.82;;
35959;SDS011;22043;50.970;7.192;2024-03-07T12:45:52;11.88;;;6.25;;
35959;SDS011;22043;50.970;7.192;2024-03-07T12:48:19;12.10;;;5.70;;
35959;SDS011;22043;50.970;7.192;2024-03-07T12:50:46;14.32;;;6.18;;
35959;SDS011;22043;50.970;7.192;2024-03-07T12:53:27;9.93;;;4.90;;
35959;SDS011;22043;50.970;7.192;2024-03-07T12:55:54;12.07;;;5.70;;
35959;SDS011;22043;50.970;7.192;2024-03-07T12:58:20;9.93;;;4.82;;
35959;SDS011;22043;50.970;7.192;2024-03-07T13:00:47;10.50;;;4.55;;
35959;SDS011;22043;50.970;7.192;2024-03-07T13:03:12;11.10;;;6.03;;
35959;SDS011;22043;50.970;7.192;2024-03-07T13:05:40;10.23;;;5.38;;
35959;SDS011;22043;50.970;7.192;2024-03-07T13:08:08;13.48;;;5.47;;
35959;SDS011;22043;50.970;7.192;2024-03-07T13:10:43;11.57;;;5.95;;
35959;SDS011;22043;50.970;7.192;2024-03-07T13:13:10;10.95;;;5.05;;
35959;SDS011;22043;50.970;7.192;2024-03-07T13:15:39;11.43;;;5.28;;
35959;SDS011;22043;50.970;7.192;2024-03-07T13:18:04;12.68;;;5.60;;
35959;SDS011;22043;50.970;7.192;2024-03-07T13:20:31;10.23;;;5.55;;
35959;SDS011;22043;50.970;7.192;2024-03-07T13:22:56;10.57;;;4.90;;
35959;SDS011;22043;50.970;7.192;2024-03-07T13:25:24;9.02;;;4.45;;
35959;SDS011;22043;50.970;7.192;2024-03-07T13:27:56;9.95;;;5.10;;
35959;SDS011;22043;50.970;7.192;2024-03-07T13:30:24;8.95;;;5.13;;
35959;SDS011;22043;50.970;7.192;2024-03-07T13:32:56;10.52;;;5.35;;
35959;SDS011;22043;50.970;7.192;2024-03-07T13:35:22;9.68;;;5.25;;
35959;SDS011;22043;50.970;7.192;2024-03-07T13:37:50;9.20;;;4.88;;
35959;SDS011;22043;50.970;7.192;2024-03-07T13:40:15;10.32;;;5.47;;
35959;SDS011;22043;50.970;7.192;2024-03-07T13:42:57;9.90;;;5.20;;
35959;SDS011;22043;50.970;7.192;2024-03-07T13:45:28;10.57;;;4.93;;
35959;SDS011;22043;50.970;7.192;2024-03-07T13:47:56;8.48;;;4.63;;
35959;SDS011;22043;50.970;7.192;2024-03-07T13:50:23;9.65;;;4.65;;
35959;SDS011;22043;50.970;7.192;2024-03-07T13:52:53;11.30;;;5.35;;
35959;SDS011;22043;50.970;7.192;2024-03-07T13:55:41;14.15;;;5.15;;
35959;SDS011;22043;50.970;7.192;2024-03-07T14:04:26;10.27;;;4.95;;
35959;SDS011;22043;50.970;7.192;2024-03-07T14:16:21;9.65;;;5.00;;
35959;SDS011;22043;50.970;7.192;2024-03-07T14:22:14;11.18;;;5.07;;
35959;SDS011;22043;50.970;7.192;2024-03-07T14:30:18;9.98;;;4.57;;
35959;SDS011;22043;50.970;7.192;2024-03-07T14:32:51;10.55;;;5.65;;
35959;SDS011;22043;50.970;7.192;2024-03-07T14:35:24;9.32;;;4.97;;
35959;SDS011;22043;50.970;7.192;2024-03-07T14:38:06;12.32;;;5.72;;
35959;SDS011;22043;50.970;7.192;2024-03-07T14:40:48;12.32;;;4.93;;
35959;SDS011;22043;50.970;7.192;2024-03-07T14:43:15;8.35;;;4.35;;
35959;SDS011;22043;50.970;7.192;2024-03-07T14:45:42;10.35;;;5.35;;
35959;SDS011;22043;50.970;7.192;2024-03-07T14:48:08;8.50;;;4.38;;
35959;SDS011;22043;50.970;7.192;2024-03-07T14:50:35;10.48;;;5.10;;
35959;SDS011;22043;50.970;7.192;2024-03-07T14:53:01;11.38;;;4.82;;
35959;SDS011;22043;50.970;7.192;2024-03-07T14:55:26;12.52;;;4.80;;
35959;SDS011;22043;50.970;7.192;2024-03-07T14:57:52;11.15;;;5.35;;
35959;SDS011;22043;50.970;7.192;2024-03-07T15:00:17;9.00;;;4.63;;
35959;SDS011;22043;50.970;7.192;2024-03-07T15:02:52;12.25;;;4.82;;
35959;SDS011;22043;50.970;7.192;2024-03-07T15:05:22;11.77;;;5.45;;
35959;SDS011;22043;50.970;7.192;2024-03-07T15:07:48;11.13;;;5.07;;
35959;SDS011;22043;50.970;7.192;2024-03-07T15:10:14;10.77;;;4.75;;